sensor_id;sensor_type;location;lat;lon;timestamp;P1;durP1;ratioP1;P2;durP2;ratioP2
59555;SDS011;45374;52.746;6.304;2023-04-06T00:01:19;14.02;;;8.82;;
59555;SDS011;45374;52.746;6.304;2023-04-06T00:03:45;13.30;;;8.93;;
59555;SDS011;45374;52.746;6.304;2023-04-06T00:06:11;15.93;;;9.23;;
59555;SDS011;45374;52.746;6.304;2023-04-06T00:08:36;15.35;;;9.60;;
59555;SDS011;45374;52.746;6.304;2023-04-06T00:11:02;12.85;;;8.88;;
59555;SDS011;45374;52.746;6.304;2023-04-06T00:13:27;13.27;;;9.15;;
59555;SDS011;45374;52.746;6.304;2023-04-06T00:15:53;12.60;;;9.15;;
59555;SDS011;45374;52.746;6.304;2023-04-06T00:18:18;13.40;;;9.13;;
59555;SDS011;45374;52.746;6.304;2023-04-06T00:20:44;13.13;;;8.98;;
59555;SDS011;45374;52.746;6.304;2023-04-06T00:23:10;15.27;;;8.85;;
59555;SDS011;45374;52.746;6.304;2023-04-06T00:25:35;13.43;;;8.80;;
59555;SDS011;45374;52.746;6.304;2023-04-06T00:28:01;13.38;;;9.38;;
59555;SDS011;45374;52.746;6.304;2023-04-06T00:30:26;14.88;;;9.18;;
59555;SDS011;45374;52.746;6.304;2023-04-06T00:32:52;14.10;;;9.15;;
59555;SDS011;45374;52.746;6.304;2023-04-06T00:35:17;13.50;;;8.95;;
59555;SDS011;45374;52.746;6.304;2023-04-06T00:37:45;13.35;;;8.82;;
59555;SDS011;45374;52.746;6.304;2023-04-06T00:40:11;13.88;;;9.30;;
59555;SDS011;45374;52.746;6.304;2023-04-06T00:42:37;13.45;;;8.55;;
59555;SDS011;45374;52.746;6.304;2023-04-06T00:45:02;13.70;;;8.98;;
59555;SDS011;45374;52.746;6.304;2023-04-06T00:47:28;12.82;;;8.30;;
59555;SDS011;45374;52.746;6.304;2023-04-06T00:49:54;13.80;;;8.63;;
59555;SDS011;45374;52.746;6.304;2023-04-06T00:52:20;12.85;;;8.48;;
59555;SDS011;45374;52.746;6.304;2023-04-06T00:54:46;13.38;;;9.00;;
59555;SDS011;45374;52.746;6.304;2023-04-06T00:57:12;14.48;;;8.38;;
59555;SDS011;45374;52.746;6.304;2023-04-06T00:59:38;11.18;;;8.13;;
59555;SDS011;45374;52.746;6.304;2023-04-06T01:02:05;15.15;;;8.57;;
59555;SDS011;45374;52.746;6.304;2023-04-06T01:04:31;14.48;;;8.85;;
59555;SDS011;45374;52.746;6.304;2023-04-06T01:06:57;12.73;;;8.90;;
59555;SDS011;45374;52.746;6.304;2023-04-06T01:09:23;14.25;;;8.70;;
59555;SDS011;45374;52.746;6.304;2023-04-06T01:11:48;13.13;;;8.50;;
59555;SDS011;45374;52.746;6.304;2023-04-06T01:14:14;15.77;;;8.60;;
59555;SDS011;45374;52.746;6.304;2023-04-06T01:16:40;15.25;;;8.90;;
59555;SDS011;45374;52.746;6.304;2023-04-06T01:19:12;14.48;;;9.05;;
59555;SDS011;45374;52.746;6.304;2023-04-06T01:21:39;13.10;;;8.63;;
59555;SDS011;45374;52.746;6.304;2023-04-06T01:24:08;14.27;;;8.57;;
59555;SDS011;45374;52.746;6.304;2023-04-06T01:26:34;14.70;;;8.35;;
59555;SDS011;45374;52.746;6.304;2023-04-06T01:29:01;13.23;;;8.70;;
59555;SDS011;45374;52.746;6.304;2023-04-06T01:31:27;12.02;;;8.27;;
59555;SDS011;45374;52.746;6.304;2023-04-06T01:33:53;12.32;;;8.57;;
59555;SDS011;45374;52.746;6.304;2023-04-06T01:36:19;15.40;;;8.73;;
59555;SDS011;45374;52.746;6.304;2023-04-06T01:38:45;11.85;;;8.18;;
59555;SDS011;45374;52.746;6.304;2023-04-06T01:41:11;13.93;;;9.20;;
59555;SDS011;45374;52.746;6.304;2023-04-06T01:43:36;12.55;;;8.60;;
59555;SDS011;45374;52.746;6.304;2023-04-06T01:46:02;15.68;;;9.52;;
59555;SDS011;45374;52.746;6.304;2023-04-06T01:48:28;15.00;;;9.93;;
59555;SDS011;45374;52.746;6.304;2023-04-06T01:50:53;15.00;;;8.65;;
59555;SDS011;45374;52.746;6.304;2023-04-06T01:53:20;14.45;;;8.90;;
59555;SDS011;45374;52.746;6.304;2023-04-06T01:55:45;14.48;;;8.80;;
59555;SDS011;45374;52.746;6.304;2023-04-06T01:58:11;15.18;;;9.43;;
59555;SDS011;45374;52.746;6.304;2023-04-06T02:00:37;16.65;;;9.40;;
59555;SDS011;45374;52.746;6.304;2023-04-06T02:03:02;14.77;;;8.75;;
59555;SDS011;45374;52.746;6.304;2023-04-06T02:05:29;16.92;;;9.05;;
59555;SDS011;45374;52.746;6.304;2023-04-06T02:07:55;16.00;;;9.25;;
59555;SDS011;45374;52.746;6.304;2023-04-06T02:10:21;12.82;;;9.02;;
59555;SDS011;45374;52.746;6.304;2023-04-06T02:12:47;14.63;;;8.73;;
59555;SDS011;45374;52.746;6.304;2023-04-06T02:15:13;14.70;;;9.00;;
59555;SDS011;45374;52.746;6.304;2023-04-06T02:17:40;13.13;;;8.85;;
59555;SDS011;45374;52.746;6.304;2023-04-06T02:20:06;14.13;;;8.50;;
59555;SDS011;45374;52.746;6.304;2023-04-06T02:22:32;13.95;;;8.90;;
59555;SDS011;45374;52.746;6.304;2023-04-06T02:24:58;14.55;;;8.75;;
59555;SDS011;45374;52.746;6.304;2023-04-06T02:27:23;14.68;;;9.60;;
59555;SDS011;45374;52.746;6.304;2023-04-06T02:29:49;15.40;;;10.35;;
59555;SDS011;45374;52.746;6.304;2023-04-06T02:32:15;14.90;;;8.80;;
59555;SDS011;45374;52.746;6.304;2023-04-06T02:34:40;13.77;;;9.20;;
59555;SDS011;45374;52.746;6.304;2023-04-06T02:37:06;15.10;;;9.55;;
59555;SDS011;45374;52.746;6.304;2023-04-06T02:39:31;16.95;;;10.05;;
59555;SDS011;45374;52.746;6.304;2023-04-06T02:41:57;14.95;;;8.93;;
59555;SDS011;45374;52.746;6.304;2023-04-06T02:44:22;15.63;;;9.85;;
59555;SDS011;45374;52.746;6.304;2023-04-06T02:46:48;14.60;;;9.57;;
59555;SDS011;45374;52.746;6.304;2023-04-06T02:49:13;15.32;;;9.60;;
59555;SDS011;45374;52.746;6.304;2023-04-06T02:51:39;14.65;;;9.60;;
59555;SDS011;45374;52.746;6.304;2023-04-06T02:54:05;18.05;;;9.32;;
59555;SDS011;45374;52.746;6.304;2023-04-06T02:56:30;16.15;;;9.27;;
59555;SDS011;45374;52.746;6.304;2023-04-06T02:58:56;14.18;;;9.35;;
59555;SDS011;45374;52.746;6.304;2023-04-06T03:01:21;15.23;;;9.70;;
59555;SDS011;45374;52.746;6.304;2023-04-06T03:03:47;12.98;;;8.95;;
59555;SDS011;45374;52.746;6.304;2023-04-06T03:06:12;16.10;;;8.93;;
59555;SDS011;45374;52.746;6.304;2023-04-06T03:08:38;17.30;;;10.02;;
59555;SDS011;45374;52.746;6.304;2023-04-06T03:11:04;16.67;;;9.10;;
59555;SDS011;45374;52.746;6.304;2023-04-06T03:13:29;17.63;;;10.10;;
59555;SDS011;45374;52.746;6.304;2023-04-06T03:15:55;16.35;;;9.52;;
59555;SDS011;45374;52.746;6.304;2023-04-06T03:18:22;14.63;;;9.35;;
59555;SDS011;45374;52.746;6.304;2023-04-06T03:20:48;15.23;;;9.45;;
59555;SDS011;45374;52.746;6.304;2023-04-06T03:23:14;14.52;;;9.52;;
59555;SDS011;45374;52.746;6.304;2023-04-06T03:25:41;18.85;;;10.02;;
59555;SDS011;45374;52.746;6.304;2023-04-06T03:28:06;16.45;;;10.30;;
59555;SDS011;45374;52.746;6.304;2023-04-06T03:30:32;15.27;;;9.20;;
59555;SDS011;45374;52.746;6.304;2023-04-06T03:32:59;16.95;;;9.20;;
59555;SDS011;45374;52.746;6.304;2023-04-06T03:35:25;16.27;;;9.13;;
59555;SDS011;45374;52.746;6.304;2023-04-06T03:37:50;14.70;;;9.55;;
59555;SDS011;45374;52.746;6.304;2023-04-06T03:40:16;16.17;;;9.95;;
59555;SDS011;45374;52.746;6.304;2023-04-06T03:42:41;16.98;;;9.80;;
59555;SDS011;45374;52.746;6.304;2023-04-06T03:45:07;15.55;;;9.85;;
59555;SDS011;45374;52.746;6.304;2023-04-06T03:47:33;14.23;;;9.48;;
59555;SDS011;45374;52.746;6.304;2023-04-06T03:49:58;18.25;;;9.60;;
59555;SDS011;45374;52.746;6.304;2023-04-06T03:52:24;16.67;;;9.35;;
59555;SDS011;45374;52.746;6.304;2023-04-06T03:54:50;13.63;;;9.10;;
59555;SDS011;45374;52.746;6.304;2023-04-06T03:57:15;16.85;;;9.70;;
59555;SDS011;45374;52.746;6.304;2023-04-06T03:59:41;16.63;;;9.90;;
59555;SDS011;45374;52.746;6.304;2023-04-06T04:02:06;17.15;;;10.48;;
59555;SDS011;45374;52.746;6.304;2023-04-06T04:04:32;19.10;;;10.55;;
59555;SDS011;45374;52.746;6.304;2023-04-06T04:06:57;15.77;;;10.13;;
59555;SDS011;45374;52.746;6.304;2023-04-06T04:09:23;16.45;;;10.43;;
59555;SDS011;45374;52.746;6.304;2023-04-06T04:11:48;16.73;;;10.00;;
59555;SDS011;45374;52.746;6.304;2023-04-06T04:14:14;19.10;;;10.50;;
59555;SDS011;45374;52.746;6.304;2023-04-06T04:16:39;19.60;;;10.70;;
59555;SDS011;45374;52.746;6.304;2023-04-06T04:19:06;18.60;;;9.82;;
59555;SDS011;45374;52.746;6.304;2023-04-06T04:21:32;16.05;;;9.77;;
59555;SDS011;45374;52.746;6.304;2023-04-06T04:23:57;18.08;;;10.55;;
59555;SDS011;45374;52.746;6.304;2023-04-06T04:26:23;19.95;;;9.80;;
59555;SDS011;45374;52.746;6.304;2023-04-06T04:28:48;17.02;;;10.90;;
59555;SDS011;45374;52.746;6.304;2023-04-06T04:31:14;22.02;;;10.98;;
59555;SDS011;45374;52.746;6.304;2023-04-06T04:33:42;16.48;;;9.88;;
59555;SDS011;45374;52.746;6.304;2023-04-06T04:36:07;18.83;;;11.07;;
59555;SDS011;45374;52.746;6.304;2023-04-06T04:38:33;16.98;;;10.35;;
59555;SDS011;45374;52.746;6.304;2023-04-06T04:40:59;18.00;;;10.40;;
59555;SDS011;45374;52.746;6.304;2023-04-06T04:43:24;19.98;;;11.13;;
59555;SDS011;45374;52.746;6.304;2023-04-06T04:45:50;19.08;;;10.80;;
59555;SDS011;45374;52.746;6.304;2023-04-06T04:48:17;18.08;;;11.05;;
59555;SDS011;45374;52.746;6.304;2023-04-06T04:50:43;21.10;;;11.50;;
59555;SDS011;45374;52.746;6.304;2023-04-06T04:53:09;18.52;;;11.10;;
59555;SDS011;45374;52.746;6.304;2023-04-06T04:55:35;18.73;;;10.75;;
59555;SDS011;45374;52.746;6.304;2023-04-06T04:58:00;16.17;;;10.43;;
59555;SDS011;45374;52.746;6.304;2023-04-06T05:00:27;16.38;;;10.88;;
59555;SDS011;45374;52.746;6.304;2023-04-06T05:02:52;17.55;;;11.02;;
59555;SDS011;45374;52.746;6.304;2023-04-06T05:05:18;17.95;;;10.82;;
59555;SDS011;45374;52.746;6.304;2023-04-06T05:07:43;17.85;;;10.70;;
59555;SDS011;45374;52.746;6.304;2023-04-06T05:10:09;20.88;;;11.18;;
59555;SDS011;45374;52.746;6.304;2023-04-06T05:12:35;20.98;;;11.40;;
59555;SDS011;45374;52.746;6.304;2023-04-06T05:15:00;20.80;;;11.35;;
59555;SDS011;45374;52.746;6.304;2023-04-06T05:17:26;22.05;;;11.70;;
59555;SDS011;45374;52.746;6.304;2023-04-06T05:19:51;18.63;;;10.85;;
59555;SDS011;45374;52.746;6.304;2023-04-06T05:22:17;17.63;;;10.30;;
59555;SDS011;45374;52.746;6.304;2023-04-06T05:24:43;17.13;;;10.68;;
59555;SDS011;45374;52.746;6.304;2023-04-06T05:27:09;21.35;;;11.10;;
59555;SDS011;45374;52.746;6.304;2023-04-06T05:29:35;18.30;;;10.52;;
59555;SDS011;45374;52.746;6.304;2023-04-06T05:32:00;19.38;;;11.68;;
59555;SDS011;45374;52.746;6.304;2023-04-06T05:34:26;18.05;;;11.13;;
59555;SDS011;45374;52.746;6.304;2023-04-06T05:36:52;20.60;;;11.20;;
59555;SDS011;45374;52.746;6.304;2023-04-06T05:39:17;20.48;;;11.60;;
59555;SDS011;45374;52.746;6.304;2023-04-06T05:41:43;17.60;;;11.18;;
59555;SDS011;45374;52.746;6.304;2023-04-06T05:44:08;21.35;;;11.82;;
59555;SDS011;45374;52.746;6.304;2023-04-06T05:46:34;18.92;;;11.25;;
59555;SDS011;45374;52.746;6.304;2023-04-06T05:48:59;19.02;;;11.68;;
59555;SDS011;45374;52.746;6.304;2023-04-06T05:51:25;19.30;;;11.27;;
59555;SDS011;45374;52.746;6.304;2023-04-06T05:53:52;16.08;;;10.88;;
59555;SDS011;45374;52.746;6.304;2023-04-06T05:56:18;18.85;;;11.52;;
59555;SDS011;45374;52.746;6.304;2023-04-06T05:58:43;21.48;;;11.38;;
59555;SDS011;45374;52.746;6.304;2023-04-06T06:01:09;19.30;;;11.65;;
59555;SDS011;45374;52.746;6.304;2023-04-06T06:03:35;18.15;;;11.70;;
59555;SDS011;45374;52.746;6.304;2023-04-06T06:06:01;18.10;;;11.02;;
59555;SDS011;45374;52.746;6.304;2023-04-06T06:08:28;19.13;;;11.68;;
59555;SDS011;45374;52.746;6.304;2023-04-06T06:10:53;18.55;;;10.88;;
59555;SDS011;45374;52.746;6.304;2023-04-06T06:13:20;19.40;;;11.40;;
59555;SDS011;45374;52.746;6.304;2023-04-06T06:15:46;20.35;;;12.02;;
59555;SDS011;45374;52.746;6.304;2023-04-06T06:18:11;20.75;;;11.98;;
59555;SDS011;45374;52.746;6.304;2023-04-06T06:20:37;19.55;;;12.63;;
59555;SDS011;45374;52.746;6.304;2023-04-06T06:23:02;19.15;;;11.52;;
59555;SDS011;45374;52.746;6.304;2023-04-06T06:25:28;21.30;;;12.02;;
59555;SDS011;45374;52.746;6.304;2023-04-06T06:27:55;20.80;;;12.75;;
59555;SDS011;45374;52.746;6.304;2023-04-06T06:30:21;19.83;;;12.15;;
59555;SDS011;45374;52.746;6.304;2023-04-06T06:32:47;20.38;;;11.80;;
59555;SDS011;45374;52.746;6.304;2023-04-06T06:35:12;20.10;;;12.52;;
59555;SDS011;45374;52.746;6.304;2023-04-06T06:37:38;20.88;;;12.20;;
59555;SDS011;45374;52.746;6.304;2023-04-06T06:40:03;20.48;;;12.80;;
59555;SDS011;45374;52.746;6.304;2023-04-06T06:42:29;20.85;;;12.70;;
59555;SDS011;45374;52.746;6.304;2023-04-06T06:44:55;22.88;;;12.65;;
59555;SDS011;45374;52.746;6.304;2023-04-06T06:47:21;22.65;;;12.50;;
59555;SDS011;45374;52.746;6.304;2023-04-06T06:49:46;23.58;;;13.52;;
59555;SDS011;45374;52.746;6.304;2023-04-06T06:52:12;22.48;;;12.80;;
59555;SDS011;45374;52.746;6.304;2023-04-06T06:54:37;23.70;;;13.13;;
59555;SDS011;45374;52.746;6.304;2023-04-06T06:57:03;23.50;;;13.43;;
59555;SDS011;45374;52.746;6.304;2023-04-06T06:59:28;20.35;;;13.95;;
59555;SDS011;45374;52.746;6.304;2023-04-06T07:01:54;24.17;;;13.55;;
59555;SDS011;45374;52.746;6.304;2023-04-06T07:04:19;22.75;;;13.15;;
59555;SDS011;45374;52.746;6.304;2023-04-06T07:06:45;22.83;;;13.85;;
59555;SDS011;45374;52.746;6.304;2023-04-06T07:09:10;25.20;;;13.98;;
59555;SDS011;45374;52.746;6.304;2023-04-06T07:11:36;23.35;;;13.98;;
59555;SDS011;45374;52.746;6.304;2023-04-06T07:14:01;23.08;;;13.93;;
59555;SDS011;45374;52.746;6.304;2023-04-06T07:16:27;25.15;;;14.45;;
59555;SDS011;45374;52.746;6.304;2023-04-06T07:18:52;24.48;;;13.75;;
59555;SDS011;45374;52.746;6.304;2023-04-06T07:21:18;23.20;;;13.50;;
59555;SDS011;45374;52.746;6.304;2023-04-06T07:23:43;25.08;;;13.75;;
59555;SDS011;45374;52.746;6.304;2023-04-06T07:26:09;26.10;;;14.50;;
59555;SDS011;45374;52.746;6.304;2023-04-06T07:28:35;22.98;;;13.85;;
59555;SDS011;45374;52.746;6.304;2023-04-06T07:31:01;24.33;;;14.20;;
59555;SDS011;45374;52.746;6.304;2023-04-06T07:33:27;26.73;;;14.77;;
59555;SDS011;45374;52.746;6.304;2023-04-06T07:35:55;23.48;;;14.68;;
59555;SDS011;45374;52.746;6.304;2023-04-06T07:38:21;22.67;;;14.57;;
59555;SDS011;45374;52.746;6.304;2023-04-06T07:40:47;22.67;;;14.52;;
59555;SDS011;45374;52.746;6.304;2023-04-06T07:43:12;22.95;;;14.60;;
59555;SDS011;45374;52.746;6.304;2023-04-06T07:45:38;24.80;;;14.15;;
59555;SDS011;45374;52.746;6.304;2023-04-06T07:48:03;22.98;;;14.75;;
59555;SDS011;45374;52.746;6.304;2023-04-06T07:50:29;22.17;;;14.15;;
59555;SDS011;45374;52.746;6.304;2023-04-06T07:52:55;27.95;;;15.52;;
59555;SDS011;45374;52.746;6.304;2023-04-06T07:55:20;23.70;;;15.10;;
59555;SDS011;45374;52.746;6.304;2023-04-06T07:57:46;22.65;;;14.57;;
59555;SDS011;45374;52.746;6.304;2023-04-06T08:00:12;23.35;;;15.25;;
59555;SDS011;45374;52.746;6.304;2023-04-06T08:02:38;22.35;;;13.85;;
59555;SDS011;45374;52.746;6.304;2023-04-06T08:05:03;22.30;;;14.63;;
59555;SDS011;45374;52.746;6.304;2023-04-06T08:07:29;23.75;;;15.50;;
59555;SDS011;45374;52.746;6.304;2023-04-06T08:09:54;23.17;;;14.57;;
59555;SDS011;45374;52.746;6.304;2023-04-06T08:12:20;26.23;;;15.75;;
59555;SDS011;45374;52.746;6.304;2023-04-06T08:14:46;23.75;;;14.52;;
59555;SDS011;45374;52.746;6.304;2023-04-06T08:17:12;24.77;;;15.32;;
59555;SDS011;45374;52.746;6.304;2023-04-06T08:19:38;22.40;;;15.35;;
59555;SDS011;45374;52.746;6.304;2023-04-06T08:22:03;23.08;;;14.68;;
59555;SDS011;45374;52.746;6.304;2023-04-06T08:24:29;24.45;;;15.18;;
59555;SDS011;45374;52.746;6.304;2023-04-06T08:26:55;25.85;;;14.52;;
59555;SDS011;45374;52.746;6.304;2023-04-06T08:29:21;25.30;;;14.88;;
59555;SDS011;45374;52.746;6.304;2023-04-06T08:31:46;24.85;;;15.77;;
59555;SDS011;45374;52.746;6.304;2023-04-06T08:34:12;24.45;;;15.90;;
59555;SDS011;45374;52.746;6.304;2023-04-06T08:36:37;25.15;;;16.60;;
59555;SDS011;45374;52.746;6.304;2023-04-06T08:39:03;25.13;;;15.93;;
59555;SDS011;45374;52.746;6.304;2023-04-06T08:41:28;25.17;;;16.05;;
59555;SDS011;45374;52.746;6.304;2023-04-06T08:43:56;27.85;;;16.13;;
59555;SDS011;45374;52.746;6.304;2023-04-06T08:46:24;26.70;;;16.98;;
59555;SDS011;45374;52.746;6.304;2023-04-06T08:48:59;26.60;;;15.98;;
59555;SDS011;45374;52.746;6.304;2023-04-06T08:51:26;28.30;;;17.15;;
59555;SDS011;45374;52.746;6.304;2023-04-06T08:53:53;25.15;;;16.77;;
59555;SDS011;45374;52.746;6.304;2023-04-06T08:56:21;29.23;;;17.50;;
59555;SDS011;45374;52.746;6.304;2023-04-06T08:58:47;26.70;;;16.90;;
59555;SDS011;45374;52.746;6.304;2023-04-06T09:01:13;24.30;;;16.80;;
59555;SDS011;45374;52.746;6.304;2023-04-06T09:03:41;30.05;;;16.90;;
59555;SDS011;45374;52.746;6.304;2023-04-06T09:06:07;26.45;;;16.60;;
59555;SDS011;45374;52.746;6.304;2023-04-06T09:08:34;28.02;;;17.02;;
59555;SDS011;45374;52.746;6.304;2023-04-06T09:11:01;27.48;;;17.20;;
59555;SDS011;45374;52.746;6.304;2023-04-06T09:13:30;24.27;;;16.80;;
59555;SDS011;45374;52.746;6.304;2023-04-06T09:16:02;26.73;;;17.60;;
59555;SDS011;45374;52.746;6.304;2023-04-06T09:18:29;27.60;;;17.13;;
59555;SDS011;45374;52.746;6.304;2023-04-06T09:20:56;29.70;;;17.85;;
59555;SDS011;45374;52.746;6.304;2023-04-06T09:23:23;28.05;;;18.55;;
59555;SDS011;45374;52.746;6.304;2023-04-06T09:25:49;27.40;;;18.48;;
59555;SDS011;45374;52.746;6.304;2023-04-06T09:28:14;25.20;;;16.45;;
59555;SDS011;45374;52.746;6.304;2023-04-06T09:30:47;28.83;;;18.42;;
59555;SDS011;45374;52.746;6.304;2023-04-06T09:33:21;30.85;;;18.92;;
59555;SDS011;45374;52.746;6.304;2023-04-06T09:35:50;31.15;;;19.00;;
59555;SDS011;45374;52.746;6.304;2023-04-06T09:38:16;30.70;;;18.52;;
59555;SDS011;45374;52.746;6.304;2023-04-06T09:40:49;30.20;;;19.27;;
59555;SDS011;45374;52.746;6.304;2023-04-06T09:43:23;29.65;;;18.02;;
59555;SDS011;45374;52.746;6.304;2023-04-06T09:45:52;31.08;;;18.85;;
59555;SDS011;45374;52.746;6.304;2023-04-06T09:48:18;31.17;;;18.63;;
59555;SDS011;45374;52.746;6.304;2023-04-06T09:50:46;32.08;;;19.40;;
59555;SDS011;45374;52.746;6.304;2023-04-06T09:53:13;32.47;;;20.00;;
59555;SDS011;45374;52.746;6.304;2023-04-06T09:55:41;30.40;;;18.95;;
59555;SDS011;45374;52.746;6.304;2023-04-06T09:58:12;32.28;;;19.58;;
59555;SDS011;45374;52.746;6.304;2023-04-06T10:03:33;29.17;;;18.40;;
59555;SDS011;45374;52.746;6.304;2023-04-06T10:06:21;29.05;;;18.60;;
59555;SDS011;45374;52.746;6.304;2023-04-06T10:08:49;31.33;;;19.15;;
59555;SDS011;45374;52.746;6.304;2023-04-06T10:11:16;31.50;;;18.77;;
59555;SDS011;45374;52.746;6.304;2023-04-06T10:13:42;31.65;;;19.70;;
59555;SDS011;45374;52.746;6.304;2023-04-06T10:16:10;31.33;;;18.85;;
59555;SDS011;45374;52.746;6.304;2023-04-06T10:18:38;32.42;;;20.30;;
59555;SDS011;45374;52.746;6.304;2023-04-06T10:21:08;30.55;;;19.83;;
59555;SDS011;45374;52.746;6.304;2023-04-06T10:23:41;30.48;;;19.98;;
59555;SDS011;45374;52.746;6.304;2023-04-06T10:26:15;32.42;;;20.30;;
59555;SDS011;45374;52.746;6.304;2023-04-06T10:28:42;30.10;;;19.95;;
59555;SDS011;45374;52.746;6.304;2023-04-06T10:31:10;32.53;;;20.13;;
59555;SDS011;45374;52.746;6.304;2023-04-06T10:33:36;32.58;;;19.60;;
59555;SDS011;45374;52.746;6.304;2023-04-06T10:38:37;38.13;;;21.02;;
59555;SDS011;45374;52.746;6.304;2023-04-06T10:41:04;32.00;;;19.50;;
59555;SDS011;45374;52.746;6.304;2023-04-06T10:43:33;33.00;;;19.77;;
59555;SDS011;45374;52.746;6.304;2023-04-06T10:46:02;31.42;;;19.38;;
59555;SDS011;45374;52.746;6.304;2023-04-06T10:48:42;32.70;;;19.80;;
59555;SDS011;45374;52.746;6.304;2023-04-06T10:51:13;29.15;;;19.40;;
59555;SDS011;45374;52.746;6.304;2023-04-06T10:53:41;35.00;;;20.55;;
59555;SDS011;45374;52.746;6.304;2023-04-06T10:56:12;29.90;;;19.30;;
59555;SDS011;45374;52.746;6.304;2023-04-06T11:01:15;34.50;;;20.25;;
59555;SDS011;45374;52.746;6.304;2023-04-06T11:03:43;31.17;;;20.05;;
59555;SDS011;45374;52.746;6.304;2023-04-06T11:06:09;34.95;;;20.17;;
59555;SDS011;45374;52.746;6.304;2023-04-06T11:08:35;31.88;;;19.65;;
59555;SDS011;45374;52.746;6.304;2023-04-06T11:11:10;31.30;;;19.80;;
59555;SDS011;45374;52.746;6.304;2023-04-06T11:13:42;33.20;;;20.38;;
59555;SDS011;45374;52.746;6.304;2023-04-06T11:16:19;32.13;;;20.38;;
59555;SDS011;45374;52.746;6.304;2023-04-06T11:18:49;31.73;;;19.77;;
59555;SDS011;45374;52.746;6.304;2023-04-06T11:21:31;30.13;;;19.27;;
59555;SDS011;45374;52.746;6.304;2023-04-06T11:26:49;32.97;;;21.00;;
59555;SDS011;45374;52.746;6.304;2023-04-06T11:29:18;32.40;;;20.08;;
59555;SDS011;45374;52.746;6.304;2023-04-06T11:31:49;32.05;;;20.50;;
59555;SDS011;45374;52.746;6.304;2023-04-06T11:34:20;31.67;;;20.85;;
59555;SDS011;45374;52.746;6.304;2023-04-06T11:36:47;33.00;;;20.85;;
59555;SDS011;45374;52.746;6.304;2023-04-06T11:39:18;34.00;;;21.15;;
59555;SDS011;45374;52.746;6.304;2023-04-06T11:41:49;35.42;;;20.77;;
59555;SDS011;45374;52.746;6.304;2023-04-06T11:44:26;33.58;;;20.63;;
59555;SDS011;45374;52.746;6.304;2023-04-06T11:47:02;33.30;;;19.98;;
59555;SDS011;45374;52.746;6.304;2023-04-06T11:49:28;36.03;;;20.30;;
59555;SDS011;45374;52.746;6.304;2023-04-06T11:51:55;33.40;;;19.65;;
59555;SDS011;45374;52.746;6.304;2023-04-06T11:54:37;31.88;;;20.02;;
59555;SDS011;45374;52.746;6.304;2023-04-06T11:57:03;31.17;;;18.60;;
59555;SDS011;45374;52.746;6.304;2023-04-06T11:59:30;37.80;;;21.00;;
59555;SDS011;45374;52.746;6.304;2023-04-06T12:01:56;32.83;;;20.15;;
59555;SDS011;45374;52.746;6.304;2023-04-06T12:04:22;33.92;;;19.40;;
59555;SDS011;45374;52.746;6.304;2023-04-06T12:06:48;29.88;;;18.67;;
59555;SDS011;45374;52.746;6.304;2023-04-06T12:09:13;35.42;;;19.30;;
59555;SDS011;45374;52.746;6.304;2023-04-06T12:11:39;30.17;;;19.00;;
59555;SDS011;45374;52.746;6.304;2023-04-06T12:14:06;34.25;;;19.75;;
59555;SDS011;45374;52.746;6.304;2023-04-06T12:16:32;30.60;;;19.25;;
59555;SDS011;45374;52.746;6.304;2023-04-06T12:18:59;32.08;;;19.30;;
59555;SDS011;45374;52.746;6.304;2023-04-06T12:21:25;32.92;;;20.45;;
59555;SDS011;45374;52.746;6.304;2023-04-06T12:23:53;29.85;;;18.38;;
59555;SDS011;45374;52.746;6.304;2023-04-06T12:26:18;33.25;;;18.85;;
59555;SDS011;45374;52.746;6.304;2023-04-06T12:28:44;33.42;;;17.00;;
59555;SDS011;45374;52.746;6.304;2023-04-06T12:31:16;30.08;;;17.00;;
59555;SDS011;45374;52.746;6.304;2023-04-06T12:33:45;26.40;;;13.77;;
59555;SDS011;45374;52.746;6.304;2023-04-06T12:36:12;20.80;;;12.68;;
59555;SDS011;45374;52.746;6.304;2023-04-06T12:38:38;23.38;;;14.23;;
59555;SDS011;45374;52.746;6.304;2023-04-06T12:41:05;25.77;;;15.05;;
59555;SDS011;45374;52.746;6.304;2023-04-06T12:43:31;25.77;;;14.27;;
59555;SDS011;45374;52.746;6.304;2023-04-06T12:45:57;24.75;;;13.15;;
59555;SDS011;45374;52.746;6.304;2023-04-06T12:48:22;21.15;;;12.52;;
59555;SDS011;45374;52.746;6.304;2023-04-06T12:50:55;21.23;;;13.55;;
59555;SDS011;45374;52.746;6.304;2023-04-06T12:53:22;21.70;;;12.93;;
59555;SDS011;45374;52.746;6.304;2023-04-06T12:55:48;21.13;;;12.75;;
59555;SDS011;45374;52.746;6.304;2023-04-06T12:58:14;19.40;;;12.40;;
59555;SDS011;45374;52.746;6.304;2023-04-06T13:00:40;22.00;;;12.45;;
59555;SDS011;45374;52.746;6.304;2023-04-06T13:03:06;16.55;;;10.63;;
59555;SDS011;45374;52.746;6.304;2023-04-06T13:05:32;19.60;;;11.93;;
59555;SDS011;45374;52.746;6.304;2023-04-06T13:07:57;19.23;;;11.93;;
59555;SDS011;45374;52.746;6.304;2023-04-06T13:10:23;20.08;;;11.85;;
59555;SDS011;45374;52.746;6.304;2023-04-06T13:12:48;20.55;;;12.35;;
59555;SDS011;45374;52.746;6.304;2023-04-06T13:15:14;19.83;;;11.75;;
59555;SDS011;45374;52.746;6.304;2023-04-06T13:17:40;16.65;;;10.43;;
59555;SDS011;45374;52.746;6.304;2023-04-06T13:20:05;20.33;;;11.70;;
59555;SDS011;45374;52.746;6.304;2023-04-06T13:22:31;20.10;;;11.43;;
59555;SDS011;45374;52.746;6.304;2023-04-06T13:24:57;19.10;;;11.35;;
59555;SDS011;45374;52.746;6.304;2023-04-06T13:27:22;16.75;;;10.10;;
59555;SDS011;45374;52.746;6.304;2023-04-06T13:29:48;18.60;;;11.07;;
59555;SDS011;45374;52.746;6.304;2023-04-06T13:32:13;19.35;;;11.32;;
59555;SDS011;45374;52.746;6.304;2023-04-06T13:34:39;18.30;;;10.90;;
59555;SDS011;45374;52.746;6.304;2023-04-06T13:37:09;19.00;;;11.50;;
59555;SDS011;45374;52.746;6.304;2023-04-06T13:39:38;21.08;;;11.95;;
59555;SDS011;45374;52.746;6.304;2023-04-06T13:42:03;22.10;;;12.02;;
59555;SDS011;45374;52.746;6.304;2023-04-06T13:44:29;21.42;;;12.23;;
59555;SDS011;45374;52.746;6.304;2023-04-06T13:46:55;23.55;;;13.00;;
59555;SDS011;45374;52.746;6.304;2023-04-06T13:49:21;22.80;;;13.30;;
59555;SDS011;45374;52.746;6.304;2023-04-06T13:51:47;23.70;;;13.35;;
59555;SDS011;45374;52.746;6.304;2023-04-06T13:54:12;22.88;;;13.82;;
59555;SDS011;45374;52.746;6.304;2023-04-06T13:56:38;25.25;;;14.63;;
59555;SDS011;45374;52.746;6.304;2023-04-06T13:59:04;25.80;;;14.88;;
59555;SDS011;45374;52.746;6.304;2023-04-06T14:01:29;27.08;;;14.60;;
59555;SDS011;45374;52.746;6.304;2023-04-06T14:03:55;22.75;;;14.52;;
59555;SDS011;45374;52.746;6.304;2023-04-06T14:06:20;25.13;;;14.93;;
59555;SDS011;45374;52.746;6.304;2023-04-06T14:08:46;22.05;;;14.02;;
59555;SDS011;45374;52.746;6.304;2023-04-06T14:11:12;22.33;;;14.50;;
59555;SDS011;45374;52.746;6.304;2023-04-06T14:13:40;27.58;;;15.45;;
59555;SDS011;45374;52.746;6.304;2023-04-06T14:16:06;26.38;;;15.13;;
59555;SDS011;45374;52.746;6.304;2023-04-06T14:18:32;24.70;;;14.88;;
59555;SDS011;45374;52.746;6.304;2023-04-06T14:20:59;24.45;;;15.52;;
59555;SDS011;45374;52.746;6.304;2023-04-06T14:23:25;26.95;;;16.90;;
59555;SDS011;45374;52.746;6.304;2023-04-06T14:26:01;28.27;;;17.95;;
59555;SDS011;45374;52.746;6.304;2023-04-06T14:28:31;29.25;;;17.63;;
59555;SDS011;45374;52.746;6.304;2023-04-06T14:31:02;28.13;;;17.40;;
59555;SDS011;45374;52.746;6.304;2023-04-06T14:33:34;27.73;;;17.58;;